sensor_id;sensor_type;location;lat;lon;timestamp;pressure;altitude;pressure_sealevel;temperature;humidity
62655;BME280;48717;55.556;37.816;2023-03-05T00:02:42;96573.00;;;-2.95;91.62
62655;BME280;48717;55.556;37.816;2023-03-05T00:05:26;96537.75;;;-3.11;91.83
62655;BME280;48717;55.556;37.816;2023-03-05T00:11:06;96560.09;;;-3.04;91.52
62655;BME280;48717;55.556;37.816;2023-03-05T00:13:37;96530.88;;;-3.22;91.68
62655;BME280;48717;55.556;37.816;2023-03-05T00:16:28;96532.59;;;-3.27;91.52
62655;BME280;48717;55.556;37.816;2023-03-05T00:18:59;96565.25;;;-3.10;91.50
62655;BME280;48717;55.556;37.816;2023-03-05T00:21:40;96556.66;;;-3.12;91.08
62655;BME280;48717;55.556;37.816;2023-03-05T00:24:30;96547.22;;;-3.17;91.94
62655;BME280;48717;55.556;37.816;2023-03-05T00:27:00;96562.66;;;-3.15;92.05
62655;BME280;48717;55.556;37.816;2023-03-05T00:29:58;96546.34;;;-3.25;92.09
62655;BME280;48717;55.556;37.816;2023-03-05T00:35:46;96540.31;;;-3.29;92.79
62655;BME280;48717;55.556;37.816;2023-03-05T00:38:27;96560.94;;;-3.24;93.09
62655;BME280;48717;55.556;37.816;2023-03-05T00:41:14;96551.50;;;-3.34;92.77
62655;BME280;48717;55.556;37.816;2023-03-05T00:47:03;96565.25;;;-3.26;93.32
62655;BME280;48717;55.556;37.816;2023-03-05T00:56:34;96533.44;;;-3.45;93.25
62655;BME280;48717;55.556;37.816;2023-03-05T00:59:58;96554.91;;;-3.35;92.90
62655;BME280;48717;55.556;37.816;2023-03-05T01:03:31;96554.03;;;-3.39;91.86
62655;BME280;48717;55.556;37.816;2023-03-05T01:06:26;96560.06;;;-3.35;92.24
62655;BME280;48717;55.556;37.816;2023-03-05T01:09:07;96572.09;;;-3.34;92.51
62655;BME280;48717;55.556;37.816;2023-03-05T01:12:25;96544.59;;;-3.35;92.55
62655;BME280;48717;55.556;37.816;2023-03-05T01:15:02;96537.72;;;-3.46;91.43
62655;BME280;48717;55.556;37.816;2023-03-05T01:17:46;96559.19;;;-3.39;91.31
62655;BME280;48717;55.556;37.816;2023-03-05T01:20:19;96546.31;;;-3.41;92.08
62655;BME280;48717;55.556;37.816;2023-03-05T01:23:26;96534.28;;;-3.51;91.27
62655;BME280;48717;55.556;37.816;2023-03-05T01:26:31;96493.00;;;-3.82;91.43
62655;BME280;48717;55.556;37.816;2023-03-05T01:29:17;96544.59;;;-3.42;92.03
62655;BME280;48717;55.556;37.816;2023-03-05T01:32:19;96546.31;;;-3.41;91.73
62655;BME280;48717;55.556;37.816;2023-03-05T01:34:50;96544.59;;;-3.42;91.78
62655;BME280;48717;55.556;37.816;2023-03-05T01:37:24;96523.09;;;-3.62;91.67
62655;BME280;48717;55.556;37.816;2023-03-05T01:40:01;96563.50;;;-3.43;90.87
62655;BME280;48717;55.556;37.816;2023-03-05T01:42:45;96535.97;;;-3.62;90.03
62655;BME280;48717;55.556;37.816;2023-03-05T01:45:37;96556.63;;;-3.47;90.54
62655;BME280;48717;55.556;37.816;2023-03-05T01:48:09;96472.38;;;-4.01;90.78
62655;BME280;48717;55.556;37.816;2023-03-05T01:51:27;96543.69;;;-3.70;89.81
62655;BME280;48717;55.556;37.816;2023-03-05T01:54:21;96543.72;;;-3.65;89.16
62655;BME280;48717;55.556;37.816;2023-03-05T01:56:55;96551.41;;;-3.61;89.44
62655;BME280;48717;55.556;37.816;2023-03-05T01:59:31;96559.16;;;-3.61;89.69
62655;BME280;48717;55.556;37.816;2023-03-05T02:02:14;96543.69;;;-3.70;89.57
62655;BME280;48717;55.556;37.816;2023-03-05T02:05:06;96536.81;;;-3.73;89.60
62655;BME280;48717;55.556;37.816;2023-03-05T02:07:43;96557.41;;;-3.73;90.31
62655;BME280;48717;55.556;37.816;2023-03-05T02:10:28;96539.34;;;-3.82;90.65
62655;BME280;48717;55.556;37.816;2023-03-05T02:13:13;96544.50;;;-3.82;90.46
62655;BME280;48717;55.556;37.816;2023-03-05T02:15:48;96542.78;;;-3.80;89.45
62655;BME280;48717;55.556;37.816;2023-03-05T02:18:25;96534.19;;;-3.91;89.81
62655;BME280;48717;55.556;37.816;2023-03-05T02:21:08;96518.66;;;-4.13;90.43
62655;BME280;48717;55.556;37.816;2023-03-05T02:23:37;96553.94;;;-3.86;90.79
62655;BME280;48717;55.556;37.816;2023-03-05T02:26:08;96537.63;;;-3.86;91.28
62655;BME280;48717;55.556;37.816;2023-03-05T02:28:48;96558.25;;;-3.83;91.47
62655;BME280;48717;55.556;37.816;2023-03-05T02:31:46;96530.75;;;-3.97;89.72
62655;BME280;48717;55.556;37.816;2023-03-05T02:34:23;96554.78;;;-3.85;90.91
62655;BME280;48717;55.556;37.816;2023-03-05T02:36:55;96555.66;;;-3.85;90.69
62655;BME280;48717;55.556;37.816;2023-03-05T02:39:27;96528.19;;;-3.89;89.88
62655;BME280;48717;55.556;37.816;2023-03-05T02:41:57;96527.31;;;-3.89;89.96
62655;BME280;48717;55.556;37.816;2023-03-05T02:44:25;96540.19;;;-3.86;90.05
62655;BME280;48717;55.556;37.816;2023-03-05T02:46:53;96553.06;;;-3.88;90.29
62655;BME280;48717;55.556;37.816;2023-03-05T02:49:20;96532.44;;;-3.96;90.48
62655;BME280;48717;55.556;37.816;2023-03-05T02:51:47;96550.47;;;-3.91;90.11
62655;BME280;48717;55.556;37.816;2023-03-05T02:54:17;96539.31;;;-3.95;91.12
62655;BME280;48717;55.556;37.816;2023-03-05T02:56:46;96548.75;;;-3.92;90.65
62655;BME280;48717;55.556;37.816;2023-03-05T02:59:13;96525.56;;;-4.03;91.06
62655;BME280;48717;55.556;37.816;2023-03-05T03:01:42;96542.75;;;-3.94;89.94
62655;BME280;48717;55.556;37.816;2023-03-05T03:04:10;96535.88;;;-4.00;89.81
62655;BME280;48717;55.556;37.816;2023-03-05T03:06:39;96535.88;;;-3.94;90.96
62655;BME280;48717;55.556;37.816;2023-03-05T03:09:18;96529.03;;;-3.91;90.23
62655;BME280;48717;55.556;37.816;2023-03-05T03:12:10;96530.72;;;-4.00;90.05
62655;BME280;48717;55.556;37.816;2023-03-05T03:14:40;96514.38;;;-4.16;90.44
62655;BME280;48717;55.556;37.816;2023-03-05T03:17:11;96527.22;;;-4.11;90.85
62655;BME280;48717;55.556;37.816;2023-03-05T03:19:42;96494.56;;;-4.34;90.29
62655;BME280;48717;55.556;37.816;2023-03-05T03:22:13;96518.63;;;-4.18;90.76
62655;BME280;48717;55.556;37.816;2023-03-05T03:24:44;96531.53;;;-4.12;90.32
62655;BME280;48717;55.556;37.816;2023-03-05T03:27:34;96534.97;;;-4.10;91.01
62655;BME280;48717;55.556;37.816;2023-03-05T03:30:35;96545.28;;;-4.07;91.34
62655;BME280;48717;55.556;37.816;2023-03-05T03:33:14;96546.97;;;-4.07;91.71
62655;BME280;48717;55.556;37.816;2023-03-05T03:35:54;96516.88;;;-4.30;91.27
62655;BME280;48717;55.556;37.816;2023-03-05T03:38:29;96516.06;;;-4.23;91.03
62655;BME280;48717;55.556;37.816;2023-03-05T03:41:01;96526.34;;;-4.24;91.62
62655;BME280;48717;55.556;37.816;2023-03-05T03:43:42;96527.22;;;-4.17;91.39
62655;BME280;48717;55.556;37.816;2023-03-05T03:46:25;96514.28;;;-4.30;91.51
62655;BME280;48717;55.556;37.816;2023-03-05T03:49:14;96527.22;;;-4.17;92.02
62655;BME280;48717;55.556;37.816;2023-03-05T03:51:45;96528.06;;;-4.20;91.88
62655;BME280;48717;55.556;37.816;2023-03-05T03:54:15;96511.75;;;-4.27;91.69
62655;BME280;48717;55.556;37.816;2023-03-05T03:56:43;96531.50;;;-4.21;93.31
62655;BME280;48717;55.556;37.816;2023-03-05T03:59:14;96504.00;;;-4.35;92.36
62655;BME280;48717;55.556;37.816;2023-03-05T04:01:41;96528.91;;;-4.23;92.82
62655;BME280;48717;55.556;37.816;2023-03-05T04:04:11;96522.03;;;-4.24;93.21
62655;BME280;48717;55.556;37.816;2023-03-05T04:06:40;96505.69;;;-4.38;92.38
62655;BME280;48717;55.556;37.816;2023-03-05T04:09:09;96520.34;;;-4.22;93.95
62655;BME280;48717;55.556;37.816;2023-03-05T04:11:38;96497.97;;;-4.41;93.12
62655;BME280;48717;55.556;37.816;2023-03-05T04:14:07;96523.72;;;-4.29;94.24
62655;BME280;48717;55.556;37.816;2023-03-05T04:16:43;96524.59;;;-4.27;94.47
62655;BME280;48717;55.556;37.816;2023-03-05T04:19:17;96542.63;;;-4.27;93.57
62655;BME280;48717;55.556;37.816;2023-03-05T04:21:45;96473.84;;;-4.65;94.61
62655;BME280;48717;55.556;37.816;2023-03-05T04:24:12;96520.28;;;-4.39;94.75
62655;BME280;48717;55.556;37.816;2023-03-05T04:26:39;96542.59;;;-4.30;94.26
62655;BME280;48717;55.556;37.816;2023-03-05T04:29:07;96464.38;;;-4.74;93.98
62655;BME280;48717;55.556;37.816;2023-03-05T04:31:36;96539.13;;;-4.35;95.60
62655;BME280;48717;55.556;37.816;2023-03-05T04:34:04;96466.84;;;-4.88;95.61
62655;BME280;48717;55.556;37.816;2023-03-05T04:36:31;96479.78;;;-4.71;95.91
62655;BME280;48717;55.556;37.816;2023-03-05T04:38:59;96530.53;;;-4.43;95.03
62655;BME280;48717;55.556;37.816;2023-03-05T04:41:27;96542.56;;;-4.36;95.30
62655;BME280;48717;55.556;37.816;2023-03-05T04:43:55;96537.38;;;-4.41;96.45
62655;BME280;48717;55.556;37.816;2023-03-05T04:46:22;96448.00;;;-4.87;95.76
62655;BME280;48717;55.556;37.816;2023-03-05T04:48:49;96516.81;;;-4.42;95.28
62655;BME280;48717;55.556;37.816;2023-03-05T04:51:18;96521.13;;;-4.41;95.97
62655;BME280;48717;55.556;37.816;2023-03-05T04:53:47;96538.34;;;-4.28;95.39
62655;BME280;48717;55.556;37.816;2023-03-05T04:56:20;96553.75;;;-4.25;96.19
62655;BME280;48717;55.556;37.816;2023-03-05T04:58:47;96530.59;;;-4.31;96.04
62655;BME280;48717;55.556;37.816;2023-03-05T05:01:15;96454.94;;;-4.77;95.68
62655;BME280;48717;55.556;37.816;2023-03-05T05:03:44;96508.22;;;-4.44;95.96
62655;BME280;48717;55.556;37.816;2023-03-05T05:06:12;96554.63;;;-4.26;96.28
62655;BME280;48717;55.556;37.816;2023-03-05T05:08:41;96537.47;;;-4.28;95.07
62655;BME280;48717;55.556;37.816;2023-03-05T05:11:13;96554.66;;;-4.23;96.52
62655;BME280;48717;55.556;37.816;2023-03-05T05:13:41;96540.00;;;-4.35;95.69
62655;BME280;48717;55.556;37.816;2023-03-05T05:16:09;96528.84;;;-4.35;95.73
62655;BME280;48717;55.556;37.816;2023-03-05T05:18:36;96539.19;;;-4.20;95.94
62655;BME280;48717;55.556;37.816;2023-03-05T05:21:10;96521.16;;;-4.34;95.29
62655;BME280;48717;55.556;37.816;2023-03-05T05:23:39;96540.97;;;-4.09;95.52
62655;BME280;48717;55.556;37.816;2023-03-05T05:26:11;96522.88;;;-4.29;94.44
62655;BME280;48717;55.556;37.816;2023-03-05T05:28:42;96543.53;;;-4.06;94.19
62655;BME280;48717;55.556;37.816;2023-03-05T05:31:13;96530.66;;;-4.18;94.20
62655;BME280;48717;55.556;37.816;2023-03-05T05:33:45;96548.75;;;-4.00;93.32
62655;BME280;48717;55.556;37.816;2023-03-05T05:36:17;96535.81;;;-4.06;92.45
62655;BME280;48717;55.556;37.816;2023-03-05T05:38:53;96539.22;;;-4.16;92.45
62655;BME280;48717;55.556;37.816;2023-03-05T05:41:20;96516.88;;;-4.30;92.15
62655;BME280;48717;55.556;37.816;2023-03-05T05:43:53;96536.69;;;-4.06;91.81
62655;BME280;48717;55.556;37.816;2023-03-05T05:46:21;96554.75;;;-3.95;91.02
62655;BME280;48717;55.556;37.816;2023-03-05T05:48:49;96538.41;;;-4.08;91.01
62655;BME280;48717;55.556;37.816;2023-03-05T05:51:20;96559.94;;;-3.91;90.07
62655;BME280;48717;55.556;37.816;2023-03-05T05:53:48;96566.78;;;-3.90;89.92
62655;BME280;48717;55.556;37.816;2023-03-05T05:56:17;96489.44;;;-4.31;89.33
62655;BME280;48717;55.556;37.816;2023-03-05T05:58:46;96513.53;;;-4.10;90.24
62655;BME280;48717;55.556;37.816;2023-03-05T06:01:22;96545.34;;;-3.89;88.68
62655;BME280;48717;55.556;37.816;2023-03-05T06:03:51;96528.16;;;-3.90;89.45
62655;BME280;48717;55.556;37.816;2023-03-05T06:06:20;96572.03;;;-3.65;88.75
62655;BME280;48717;55.556;37.816;2023-03-05T06:08:49;96556.59;;;-3.65;89.16
62655;BME280;48717;55.556;37.816;2023-03-05T06:11:20;96563.47;;;-3.52;88.56
62655;BME280;48717;55.556;37.816;2023-03-05T06:13:48;96554.88;;;-3.56;87.43
62655;BME280;48717;55.556;37.816;2023-03-05T06:16:22;96562.66;;;-3.37;87.63
62655;BME280;48717;55.556;37.816;2023-03-05T06:18:52;96566.09;;;-3.33;87.03
62655;BME280;48717;55.556;37.816;2023-03-05T06:21:25;96556.66;;;-3.34;86.11
62655;BME280;48717;55.556;37.816;2023-03-05T06:23:57;96574.69;;;-3.20;85.44
62655;BME280;48717;55.556;37.816;2023-03-05T06:26:26;96548.06;;;-3.33;85.13
62655;BME280;48717;55.556;37.816;2023-03-05T06:28:57;96573.81;;;-3.18;85.16
62655;BME280;48717;55.556;37.816;2023-03-05T06:31:28;96478.44;;;-3.78;84.23
62655;BME280;48717;55.556;37.816;2023-03-05T06:34:04;96578.13;;;-3.29;84.31
62655;BME280;48717;55.556;37.816;2023-03-05T06:36:32;96578.09;;;-3.34;84.83
62655;BME280;48717;55.556;37.816;2023-03-05T06:39:08;96525.66;;;-3.67;84.19
62655;BME280;48717;55.556;37.816;2023-03-05T06:41:37;96575.50;;;-3.35;84.76
62655;BME280;48717;55.556;37.816;2023-03-05T06:44:05;96580.66;;;-3.35;85.16
62655;BME280;48717;55.556;37.816;2023-03-05T06:46:34;96559.16;;;-3.58;86.05
62655;BME280;48717;55.556;37.816;2023-03-05T06:49:05;96549.69;;;-3.67;86.51
62655;BME280;48717;55.556;37.816;2023-03-05T06:51:38;96579.78;;;-3.58;86.58
62655;BME280;48717;55.556;37.816;2023-03-05T06:54:10;96566.88;;;-3.62;86.95
62655;BME280;48717;55.556;37.816;2023-03-05T06:56:40;96578.94;;;-3.50;87.32
62655;BME280;48717;55.556;37.816;2023-03-05T06:59:07;96547.13;;;-3.67;87.45
62655;BME280;48717;55.556;37.816;2023-03-05T07:01:35;96586.66;;;-3.47;87.54
62655;BME280;48717;55.556;37.816;2023-03-05T07:04:02;96592.66;;;-3.53;86.87
62655;BME280;48717;55.556;37.816;2023-03-05T07:06:33;96586.66;;;-3.46;88.15
62655;BME280;48717;55.556;37.816;2023-03-05T07:09:02;96572.06;;;-3.56;88.78
62655;BME280;48717;55.556;37.816;2023-03-05T07:11:32;96596.09;;;-3.45;88.14
62655;BME280;48717;55.556;37.816;2023-03-05T07:14:02;96577.16;;;-3.72;87.94
62655;BME280;48717;55.556;37.816;2023-03-05T07:16:33;96590.09;;;-3.42;87.87
62655;BME280;48717;55.556;37.816;2023-03-05T07:19:04;96572.06;;;-3.56;87.67
62655;BME280;48717;55.556;37.816;2023-03-05T07:21:35;96598.72;;;-3.40;88.06
62655;BME280;48717;55.556;37.816;2023-03-05T07:24:06;96519.59;;;-3.88;87.59
62655;BME280;48717;55.556;37.816;2023-03-05T07:26:35;96584.94;;;-3.48;87.40
62655;BME280;48717;55.556;37.816;2023-03-05T07:29:03;96572.06;;;-3.55;88.09
62655;BME280;48717;55.556;37.816;2023-03-05T07:31:32;96612.47;;;-3.33;87.86
62655;BME280;48717;55.556;37.816;2023-03-05T07:34:02;96615.91;;;-3.36;88.19
62655;BME280;48717;55.556;37.816;2023-03-05T07:36:30;96608.16;;;-3.44;88.13
62655;BME280;48717;55.556;37.816;2023-03-05T07:39:02;96613.28;;;-3.41;87.79
62655;BME280;48717;55.556;37.816;2023-03-05T07:41:35;96625.28;;;-3.49;87.25
62655;BME280;48717;55.556;37.816;2023-03-05T07:44:08;96627.03;;;-3.49;88.07
62655;BME280;48717;55.556;37.816;2023-03-05T07:46:36;96593.44;;;-3.76;88.98
62655;BME280;48717;55.556;37.816;2023-03-05T07:49:05;96636.47;;;-3.55;89.45
62655;BME280;48717;55.556;37.816;2023-03-05T07:51:33;96625.22;;;-3.71;88.97
62655;BME280;48717;55.556;37.816;2023-03-05T07:54:00;96621.75;;;-3.76;89.25
62655;BME280;48717;55.556;37.816;2023-03-05T07:56:33;96626.94;;;-3.67;89.06
62655;BME280;48717;55.556;37.816;2023-03-05T07:59:06;96645.00;;;-3.62;88.81
62655;BME280;48717;55.556;37.816;2023-03-05T08:01:34;96647.56;;;-3.63;89.02
62655;BME280;48717;55.556;37.816;2023-03-05T08:04:03;96656.16;;;-3.64;89.43
62655;BME280;48717;55.556;37.816;2023-03-05T08:06:30;96652.69;;;-3.73;89.61
62655;BME280;48717;55.556;37.816;2023-03-05T08:08:59;96627.72;;;-3.82;89.68
62655;BME280;48717;55.556;37.816;2023-03-05T08:11:26;96663.91;;;-3.63;90.84
62655;BME280;48717;55.556;37.816;2023-03-05T08:13:55;96663.03;;;-3.60;89.96
62655;BME280;48717;55.556;37.816;2023-03-05T08:16:25;96648.44;;;-3.61;90.11
62655;BME280;48717;55.556;37.816;2023-03-05T08:18:55;96657.88;;;-3.63;90.86
62655;BME280;48717;55.556;37.816;2023-03-05T08:21:25;96616.63;;;-3.79;90.38
62655;BME280;48717;55.556;37.816;2023-03-05T08:23:56;96675.13;;;-3.41;89.89
62655;BME280;48717;55.556;37.816;2023-03-05T08:26:26;96656.22;;;-3.52;90.28
62655;BME280;48717;55.556;37.816;2023-03-05T08:28:54;96666.53;;;-3.43;90.11
62655;BME280;48717;55.556;37.816;2023-03-05T08:31:23;96694.06;;;-3.32;89.73
62655;BME280;48717;55.556;37.816;2023-03-05T08:33:54;96670.00;;;-3.34;89.96
62655;BME280;48717;55.556;37.816;2023-03-05T08:36:22;96676.06;;;-3.26;90.26
62655;BME280;48717;55.556;37.816;2023-03-05T08:38:50;96699.28;;;-3.17;89.98
62655;BME280;48717;55.556;37.816;2023-03-05T08:41:18;96692.38;;;-3.18;90.14
62655;BME280;48717;55.556;37.816;2023-03-05T08:43:46;96698.44;;;-3.14;90.37
62655;BME280;48717;55.556;37.816;2023-03-05T08:46:14;96700.16;;;-3.07;90.91
62655;BME280;48717;55.556;37.816;2023-03-05T08:48:45;96695.88;;;-2.97;90.61
62655;BME280;48717;55.556;37.816;2023-03-05T08:51:17;96702.75;;;-2.93;90.57
62655;BME280;48717;55.556;37.816;2023-03-05T08:53:44;96694.19;;;-2.87;90.04
62655;BME280;48717;55.556;37.816;2023-03-05T08:56:12;96692.50;;;-2.77;90.35
62655;BME280;48717;55.556;37.816;2023-03-05T08:58:41;96669.28;;;-2.79;90.02
62655;BME280;48717;55.556;37.816;2023-03-05T09:01:08;96698.53;;;-2.56;89.92
62655;BME280;48717;55.556;37.816;2023-03-05T09:03:39;96711.41;;;-2.38;89.58
62655;BME280;48717;55.556;37.816;2023-03-05T09:06:10;96701.13;;;-2.33;88.55
62655;BME280;48717;55.556;37.816;2023-03-05T09:08:42;96701.97;;;-2.26;88.46
62655;BME280;48717;55.556;37.816;2023-03-05T09:11:11;96677.03;;;-2.40;88.30
62655;BME280;48717;55.556;37.816;2023-03-05T09:13:39;96692.53;;;-2.27;88.80
62655;BME280;48717;55.556;37.816;2023-03-05T09:16:10;96722.59;;;-2.20;88.77
62655;BME280;48717;55.556;37.816;2023-03-05T09:18:40;96708.00;;;-2.23;88.69
62655;BME280;48717;55.556;37.816;2023-03-05T09:21:10;96684.78;;;-2.38;88.73
62655;BME280;48717;55.556;37.816;2023-03-05T09:23:39;96736.41;;;-2.16;88.81
62655;BME280;48717;55.556;37.816;2023-03-05T09:26:11;96726.06;;;-2.07;89.61
62655;BME280;48717;55.556;37.816;2023-03-05T09:28:40;96726.94;;;-2.10;89.00
62655;BME280;48717;55.556;37.816;2023-03-05T09:31:10;96739.81;;;-2.03;88.66
62655;BME280;48717;55.556;37.816;2023-03-05T09:33:37;96744.13;;;-1.99;89.52
62655;BME280;48717;55.556;37.816;2023-03-05T09:36:16;96726.91;;;-2.16;89.82
62655;BME280;48717;55.556;37.816;2023-03-05T09:38:44;96725.22;;;-2.14;90.46
62655;BME280;48717;55.556;37.816;2023-03-05T09:55:26;96751.00;;;-1.98;88.85
62655;BME280;48717;55.556;37.816;2023-03-05T09:58:05;96772.50;;;-1.71;88.73
62655;BME280;48717;55.556;37.816;2023-03-05T10:00:49;96759.63;;;-1.74;88.23
62655;BME280;48717;55.556;37.816;2023-03-05T10:03:29;96787.13;;;-1.51;87.77
62655;BME280;48717;55.556;37.816;2023-03-05T10:06:10;96777.63;;;-1.49;87.63
62655;BME280;48717;55.556;37.816;2023-03-05T10:08:54;96793.13;;;-1.38;88.11
62655;BME280;48717;55.556;37.816;2023-03-05T10:14:22;96795.66;;;-1.15;87.01
62655;BME280;48717;55.556;37.816;2023-03-05T10:25:24;96788.72;;;-1.03;87.81
62655;BME280;48717;55.556;37.816;2023-03-05T10:28:09;96817.94;;;-0.76;87.93
62655;BME280;48717;55.556;37.816;2023-03-05T10:30:50;96824.00;;;-0.82;86.64
62655;BME280;48717;55.556;37.816;2023-03-05T10:36:36;96814.56;;;-0.94;87.42
62655;BME280;48717;55.556;37.816;2023-03-05T10:49:57;96837.91;;;-1.28;86.14
62655;BME280;48717;55.556;37.816;2023-03-05T10:52:33;96831.91;;;-1.34;85.16
62655;BME280;48717;55.556;37.816;2023-03-05T10:55:11;96842.22;;;-1.24;84.76
62655;BME280;48717;55.556;37.816;2023-03-05T10:57:39;96853.44;;;-1.24;85.41
62655;BME280;48717;55.556;37.816;2023-03-05T11:00:26;96878.38;;;-0.99;86.06
62655;BME280;48717;55.556;37.816;2023-03-05T11:13:51;96893.03;;;-1.14;83.84
62655;BME280;48717;55.556;37.816;2023-03-05T11:16:32;96912.88;;;-1.21;81.81
62655;BME280;48717;55.556;37.816;2023-03-05T11:19:24;96906.00;;;-1.26;82.62
62655;BME280;48717;55.556;37.816;2023-03-05T11:22:24;96898.25;;;-1.39;82.10
62655;BME280;48717;55.556;37.816;2023-03-05T11:27:47;96915.50;;;-1.44;81.50
62655;BME280;48717;55.556;37.816;2023-03-05T11:30:34;96934.44;;;-1.36;81.89
62655;BME280;48717;55.556;37.816;2023-03-05T11:33:18;96940.47;;;-1.40;81.75
62655;BME280;48717;55.556;37.816;2023-03-05T11:35:47;96949.97;;;-1.37;82.01
62655;BME280;48717;55.556;37.816;2023-03-05T11:38:17;96944.78;;;-1.40;82.08
62655;BME280;48717;55.556;37.816;2023-03-05T11:40:44;96945.66;;;-1.52;81.40
62655;BME280;48717;55.556;37.816;2023-03-05T11:43:15;96947.34;;;-1.64;80.76
62655;BME280;48717;55.556;37.816;2023-03-05T11:45:42;96969.75;;;-1.50;80.89
62655;BME280;48717;55.556;37.816;2023-03-05T11:50:52;96986.13;;;-1.36;81.60
62655;BME280;48717;55.556;37.816;2023-03-05T11:53:34;96947.34;;;-1.61;81.19
62655;BME280;48717;55.556;37.816;2023-03-05T11:56:12;96993.03;;;-1.47;80.30
62655;BME280;48717;55.556;37.816;2023-03-05T11:59:37;96988.69;;;-1.61;81.92
62655;BME280;48717;55.556;37.816;2023-03-05T12:01:45;97003.34;;;-1.66;81.56
62655;BME280;48717;55.556;37.816;2023-03-05T12:04:14;96995.59;;;-1.66;82.17
62655;BME280;48717;55.556;37.816;2023-03-05T12:09:39;97017.97;;;-1.68;82.02
62655;BME280;48717;55.556;37.816;2023-03-05T12:15:37;97019.69;;;-1.67;81.36
62655;BME280;48717;55.556;37.816;2023-03-05T12:23:20;97051.59;;;-1.62;81.84
62655;BME280;48717;55.556;37.816;2023-03-05T12:25:50;97036.88;;;-1.72;81.13
62655;BME280;48717;55.556;37.816;2023-03-05T12:31:04;97061.06;;;-1.61;80.87
62655;BME280;48717;55.556;37.816;2023-03-05T12:33:37;97046.38;;;-1.69;81.96
62655;BME280;48717;55.556;37.816;2023-03-05T12:47:13;97086.91;;;-1.59;83.21
62655;BME280;48717;55.556;37.816;2023-03-05T12:49:37;97093.78;;;-1.60;82.09
62655;BME280;48717;55.556;37.816;2023-03-05T12:52:15;97096.38;;;-1.58;83.19
62655;BME280;48717;55.556;37.816;2023-03-05T12:57:43;97089.41;;;-1.76;81.18
62655;BME280;48717;55.556;37.816;2023-03-05T13:00:28;97071.25;;;-1.89;81.11
62655;BME280;48717;55.556;37.816;2023-03-05T13:03:01;97110.94;;;-1.76;80.92
62655;BME280;48717;55.556;37.816;2023-03-05T13:05:36;97090.22;;;-1.93;81.01
62655;BME280;48717;55.556;37.816;2023-03-05T13:08:23;97115.25;;;-1.79;80.37
62655;BME280;48717;55.556;37.816;2023-03-05T13:10:54;97120.41;;;-1.76;80.82
62655;BME280;48717;55.556;37.816;2023-03-05T13:13:25;97095.34;;;-1.99;79.98
62655;BME280;48717;55.556;37.816;2023-03-05T13:15:54;97118.66;;;-1.79;80.58
62655;BME280;48717;55.556;37.816;2023-03-05T13:18:24;97065.16;;;-2.05;81.38
62655;BME280;48717;55.556;37.816;2023-03-05T13:23:32;97124.72;;;-1.78;80.00
62655;BME280;48717;55.556;37.816;2023-03-05T13:26:07;97146.31;;;-1.62;79.29
62655;BME280;48717;55.556;37.816;2023-03-05T13:28:36;97140.22;;;-1.78;79.43
62655;BME280;48717;55.556;37.816;2023-03-05T13:31:16;97134.22;;;-1.73;79.64
62655;BME280;48717;55.556;37.816;2023-03-05T13:33:55;97150.63;;;-1.66;80.43
62655;BME280;48717;55.556;37.816;2023-03-05T13:36:25;97161.78;;;-1.65;79.78
62655;BME280;48717;55.556;37.816;2023-03-05T13:38:53;97174.72;;;-1.64;78.91
62655;BME280;48717;55.556;37.816;2023-03-05T13:41:26;97182.47;;;-1.64;79.60
62655;BME280;48717;55.556;37.816;2023-03-05T13:44:01;97183.34;;;-1.65;79.91
62655;BME280;48717;55.556;37.816;2023-03-05T13:46:33;97181.59;;;-1.64;81.04
62655;BME280;48717;55.556;37.816;2023-03-05T13:49:21;97187.63;;;-1.65;80.63
62655;BME280;48717;55.556;37.816;2023-03-05T13:51:54;97196.28;;;-1.62;81.27
62655;BME280;48717;55.556;37.816;2023-03-05T13:54:23;97190.22;;;-1.64;79.14
62655;BME280;48717;55.556;37.816;2023-03-05T13:56:56;97182.47;;;-1.65;79.73
62655;BME280;48717;55.556;37.816;2023-03-05T13:59:29;97172.88;;;-1.87;79.31
62655;BME280;48717;55.556;37.816;2023-03-05T14:02:17;97192.69;;;-1.87;78.81
62655;BME280;48717;55.556;37.816;2023-03-05T14:04:46;97205.66;;;-1.79;79.41
62655;BME280;48717;55.556;37.816;2023-03-05T14:09:50;97178.78;;;-2.06;78.55
62655;BME280;48717;55.556;37.816;2023-03-05T14:17:46;97208.09;;;-2.03;78.42
62655;BME280;48717;55.556;37.816;2023-03-05T14:20:23;97234.88;;;-1.87;79.28
62655;BME280;48717;55.556;37.816;2023-03-05T14:22:53;97214.97;;;-2.02;79.81
62655;BME280;48717;55.556;37.816;2023-03-05T14:25:37;97210.63;;;-2.07;79.77
62655;BME280;48717;55.556;37.816;2023-03-05T14:28:06;97244.28;;;-1.97;
62655;BME280;48717;55.556;37.816;2023-03-05T14:30:47;97252.88;;;-1.98;79.10
62655;BME280;48717;55.556;37.816;2023-03-05T14:33:22;97250.25;;;-2.02;79.61
62655;BME280;48717;55.556;37.816;2023-03-05T14:35:52;97253.69;;;-2.03;80.44
62655;BME280;48717;55.556;37.816;2023-03-05T14:38:26;97248.47;;;-2.13;79.57
62655;BME280;48717;55.556;37.816;2023-03-05T14:40:55;97216.34;;;-2.44;79.89
62655;BME280;48717;55.556;37.816;2023-03-05T14:43:22;97255.25;;;-2.24;79.92
62655;BME280;48717;55.556;37.816;2023-03-05T14:45:50;97269.88;;;-2.26;79.57
62655;BME280;48717;55.556;37.816;2023-03-05T14:48:17;97259.56;;;-2.25;81.65
62655;BME280;48717;55.556;37.816;2023-03-05T14:50:47;97275.88;;;-2.24;82.13
62655;BME280;48717;55.556;37.816;2023-03-05T14:53:27;97251.63;;;-2.45;81.91
62655;BME280;48717;55.556;37.816;2023-03-05T14:55:55;97281.91;;;-2.28;81.88
62655;BME280;48717;55.556;37.816;2023-03-05T14:58:25;97276.72;;;-2.30;81.95
62655;BME280;48717;55.556;37.816;2023-03-05T15:00:54;97288.75;;;-2.30;82.15
62655;BME280;48717;55.556;37.816;2023-03-05T15:03:23;97276.59;;;-2.42;82.30
62655;BME280;48717;55.556;37.816;2023-03-05T15:05:54;97295.63;;;-2.34;83.24
62655;BME280;48717;55.556;37.816;2023-03-05T15:08:27;97306.78;;;-2.37;83.35
62655;BME280;48717;55.556;37.816;2023-03-05T15:10:55;97293.78;;;-2.46;83.38
62655;BME280;48717;55.556;37.816;2023-03-05T15:13:23;97272.16;;;-2.57;84.02
62655;BME280;48717;55.556;37.816;2023-03-05T15:15:51;97312.81;;;-2.34;83.46
62655;BME280;48717;55.556;37.816;2023-03-05T15:18:21;97298.94;;;-2.46;83.22